Time;durP1;ratioP1;P1;durP2;ratioP2;P2;SDS_P1;SDS_P2;PMS_P1;PMS_P2;Temp;Humidity;BMP_temperature;BMP_pressure;BME280_temperature;BME280_humidity;BME280_pressure;Samples;Min_cycle;Max_cycle;Signal;HPM_P1;HPM_P2
2023/09/30 00:02:19;;;;;;;6.15;3.08;;;;;;;;;;5133704;28;20692;-92
2023/09/30 00:04:46;;;;;;;12.30;4.57;;;;;;;;;;5127809;27;20798;-91
2023/09/30 00:07:14;;;;;;;5.53;3.55;;;;;;;;;;5123224;28;20203;-91
2023/09/30 00:09:42;;;;;;;3.35;2.80;;;;;;;;;;5133884;28;20218;-92
2023/09/30 00:12:09;;;;;;;2.75;2.38;;;;;;;;;;5133704;28;20715;-92
2023/09/30 00:14:37;;;;;;;6.18;2.30;;;;;;;;;;5133663;28;20286;-91
2023/09/30 00:17:05;;;;;;;5.05;2.08;;;;;;;;;;5133747;28;20195;-92
2023/09/30 00:19:34;;;;;;;6.70;2.80;;;;;;;;;;5133782;28;20298;-93
2023/09/30 00:22:01;;;;;;;4.05;2.38;;;;;;;;;;5144584;28;20242;-92
2023/09/30 00:24:29;;;;;;;4.90;2.38;;;;;;;;;;5137691;27;20219;-92
2023/09/30 00:26:57;;;;;;;5.28;3.00;;;;;;;;;;5137990;27;20719;-91
2023/09/30 00:29:24;;;;;;;5.65;3.17;;;;;;;;;;5138000;27;20219;-91
2023/09/30 00:31:52;;;;;;;4.95;2.60;;;;;;;;;;5137819;27;20199;-90
2023/09/30 00:34:19;;;;;;;6.50;2.55;;;;;;;;;;5137826;27;20206;-93
2023/09/30 00:36:49;;;;;;;7.43;3.60;;;;;;;;;;5111429;27;20202;-91
2023/09/30 00:39:16;;;;;;;5.25;2.25;;;;;;;;;;5137264;27;20625;-92
2023/09/30 00:41:44;;;;;;;6.63;3.28;;;;;;;;;;5138111;27;20199;-91
2023/09/30 00:44:11;;;;;;;11.88;3.65;;;;;;;;;;5141391;27;20203;-91
2023/09/30 00:46:41;;;;;;;4.35;2.78;;;;;;;;;;5137403;27;20210;-91
2023/09/30 00:49:10;;;;;;;4.30;2.92;;;;;;;;;;5137450;27;20223;-93
2023/09/30 00:51:37;;;;;;;3.72;2.20;;;;;;;;;;5137948;27;20190;-91
2023/09/30 00:54:08;;;;;;;5.13;2.60;;;;;;;;;;5136851;27;20286;-92
2023/09/30 00:56:38;;;;;;;7.18;3.03;;;;;;;;;;5137376;27;20574;-91
2023/09/30 00:59:05;;;;;;;4.00;2.60;;;;;;;;;;5137004;27;20219;-91
2023/09/30 01:01:33;;;;;;;5.30;2.03;;;;;;;;;;5137134;27;20286;-91
2023/09/30 01:04:01;;;;;;;5.22;2.85;;;;;;;;;;5137081;27;20305;-91
2023/09/30 01:06:29;;;;;;;4.90;2.92;;;;;;;;;;5136033;27;20274;-91
2023/09/30 01:08:56;;;;;;;5.70;2.58;;;;;;;;;;5136373;27;20786;-91
2023/09/30 01:11:26;;;;;;;17.90;3.80;;;;;;;;;;5136949;27;20286;-91
2023/09/30 01:13:55;;;;;;;3.10;2.33;;;;;;;;;;5136852;27;20267;-91
2023/09/30 01:16:23;;;;;;;6.88;2.72;;;;;;;;;;5136759;27;20225;-91
2023/09/30 01:18:51;;;;;;;5.47;2.40;;;;;;;;;;5136804;27;20271;-92
2023/09/30 01:21:20;;;;;;;5.90;2.92;;;;;;;;;;5136613;27;20202;-91
2023/09/30 01:23:49;;;;;;;5.47;2.33;;;;;;;;;;5139370;27;20214;-92
2023/09/30 01:26:16;;;;;;;3.75;1.90;;;;;;;;;;5136319;27;20688;-91
2023/09/30 01:28:44;;;;;;;3.22;1.67;;;;;;;;;;5136897;27;20199;-91
2023/09/30 01:31:12;;;;;;;2.65;1.70;;;;;;;;;;5136640;27;20571;-93
2023/09/30 01:33:39;;;;;;;1.98;1.42;;;;;;;;;;5136247;27;20639;-91
2023/09/30 01:36:07;;;;;;;2.15;1.70;;;;;;;;;;5135069;27;20215;-92
2023/09/30 01:38:36;;;;;;;2.58;1.95;;;;;;;;;;5136177;27;20611;-91
2023/09/30 01:41:05;;;;;;;3.63;2.33;;;;;;;;;;5136416;27;20199;-92
2023/09/30 01:43:34;;;;;;;4.95;3.30;;;;;;;;;;5138897;27;20282;-93
2023/09/30 01:46:01;;;;;;;8.95;2.90;;;;;;;;;;5143063;27;20237;-92
2023/09/30 01:48:29;;;;;;;6.95;2.50;;;;;;;;;;5135826;27;20638;-91
2023/09/30 01:50:57;;;;;;;6.68;3.13;;;;;;;;;;5137799;27;20209;-91
2023/09/30 01:53:24;;;;;;;3.97;2.38;;;;;;;;;;5136107;27;20203;-91
2023/09/30 01:55:52;;;;;;;3.35;2.15;;;;;;;;;;5135775;27;20569;-91
2023/09/30 01:58:21;;;;;;;3.40;1.70;;;;;;;;;;5135818;27;20278;-91
2023/09/30 02:00:48;;;;;;;2.75;1.58;;;;;;;;;;5138618;27;20297;-92
2023/09/30 02:03:17;;;;;;;7.32;3.00;;;;;;;;;;5136826;27;20664;-91
2023/09/30 02:05:45;;;;;;;5.53;2.53;;;;;;;;;;5135341;27;20580;-91
2023/09/30 02:08:13;;;;;;;6.22;2.75;;;;;;;;;;5135844;27;20285;-92
2023/09/30 02:10:41;;;;;;;9.38;2.67;;;;;;;;;;5136177;27;20226;-92
2023/09/30 02:13:09;;;;;;;6.65;2.22;;;;;;;;;;5135804;27;20281;-92
2023/09/30 02:15:41;;;;;;;4.18;2.13;;;;;;;;;;5138218;27;20717;-93
2023/09/30 02:18:09;;;;;;;3.60;2.45;;;;;;;;;;5135723;27;20191;-92
2023/09/30 02:20:39;;;;;;;4.90;2.40;;;;;;;;;;5135633;27;20275;-92
2023/09/30 02:23:07;;;;;;;4.22;2.25;;;;;;;;;;5135465;27;20219;-92
2023/09/30 02:25:34;;;;;;;8.95;3.30;;;;;;;;;;5135303;27;20227;-93
2023/09/30 02:28:02;;;;;;;2.03;1.40;;;;;;;;;;5135190;27;20190;-93
2023/09/30 02:30:30;;;;;;;2.30;1.73;;;;;;;;;;5134925;27;20243;-92
2023/09/30 02:33:00;;;;;;;2.35;1.48;;;;;;;;;;5154163;27;20191;-91
2023/09/30 02:35:27;;;;;;;2.85;1.52;;;;;;;;;;5159599;27;20193;-90
2023/09/30 02:37:55;;;;;;;1.50;1.35;;;;;;;;;;5131260;28;20218;-92
2023/09/30 02:40:24;;;;;;;2.85;1.88;;;;;;;;;;5128344;28;20303;-91
2023/09/30 02:42:52;;;;;;;2.83;1.70;;;;;;;;;;5115621;28;20222;-92
2023/09/30 02:45:20;;;;;;;3.63;1.75;;;;;;;;;;5114618;28;20224;-91
2023/09/30 02:47:48;;;;;;;3.90;1.85;;;;;;;;;;5113744;28;20192;-92
2023/09/30 02:50:17;;;;;;;2.90;1.80;;;;;;;;;;5114698;28;20220;-91
2023/09/30 02:52:44;;;;;;;4.75;2.17;;;;;;;;;;5114404;28;20210;-92
2023/09/30 02:55:12;;;;;;;8.02;3.03;;;;;;;;;;5114366;28;20680;-92
2023/09/30 02:57:41;;;;;;;3.88;2.30;;;;;;;;;;5114855;28;20207;-92
2023/09/30 03:00:23;;;;;;;3.25;2.13;;;;;;;;;;5113939;28;20650;-92
2023/09/30 03:02:52;;;;;;;3.03;1.90;;;;;;;;;;5114272;28;20204;-92
2023/09/30 03:05:21;;;;;;;4.75;1.95;;;;;;;;;;5120992;27;20670;-91
2023/09/30 03:07:50;;;;;;;4.78;2.22;;;;;;;;;;5125982;27;20664;-92
2023/09/30 03:10:20;;;;;;;4.18;1.83;;;;;;;;;;5134658;27;20222;-92
2023/09/30 03:12:48;;;;;;;5.68;2.05;;;;;;;;;;5134796;27;20206;-91
2023/09/30 03:15:16;;;;;;;3.45;2.08;;;;;;;;;;5135258;27;20199;-91
2023/09/30 03:17:44;;;;;;;5.18;2.83;;;;;;;;;;5134238;27;20641;-91
2023/09/30 03:20:14;;;;;;;4.03;1.50;;;;;;;;;;5134083;27;20211;-92
2023/09/30 03:22:46;;;;;;;4.68;1.83;;;;;;;;;;5134456;27;20199;-91
2023/09/30 03:25:17;;;;;;;2.13;1.75;;;;;;;;;;5134072;27;20265;-91
2023/09/30 03:27:46;;;;;;;5.40;2.80;;;;;;;;;;5134367;27;20259;-92
2023/09/30 03:30:15;;;;;;;3.38;1.65;;;;;;;;;;5134352;27;20652;-93
2023/09/30 03:32:43;;;;;;;5.03;2.28;;;;;;;;;;5134293;27;20290;-92
2023/09/30 03:35:15;;;;;;;3.40;2.08;;;;;;;;;;5132856;27;20225;-92
2023/09/30 03:37:44;;;;;;;2.85;2.03;;;;;;;;;;5134012;27;20281;-91
2023/09/30 03:40:18;;;;;;;4.45;1.75;;;;;;;;;;5134283;27;20336;-91
2023/09/30 03:42:49;;;;;;;5.32;2.83;;;;;;;;;;5134073;27;20217;-93
2023/09/30 03:45:18;;;;;;;1.50;1.40;;;;;;;;;;5134433;27;20214;-90
2023/09/30 03:47:47;;;;;;;4.00;1.63;;;;;;;;;;5105376;27;20215;-90
2023/09/30 03:50:15;;;;;;;3.38;1.90;;;;;;;;;;5088287;28;20239;-91
2023/09/30 03:52:45;;;;;;;1.85;1.40;;;;;;;;;;5089899;28;20287;-91
2023/09/30 03:55:13;;;;;;;1.90;1.30;;;;;;;;;;5088127;28;20914;-90
2023/09/30 03:57:41;;;;;;;3.55;2.28;;;;;;;;;;5087906;28;20204;-90
2023/09/30 04:00:18;;;;;;;2.63;1.60;;;;;;;;;;5089396;28;20380;-91
2023/09/30 04:02:49;;;;;;;1.98;1.70;;;;;;;;;;5087432;28;20681;-92
2023/09/30 04:05:18;;;;;;;3.20;1.70;;;;;;;;;;5088999;28;20224;-91
2023/09/30 04:07:47;;;;;;;1.73;1.50;;;;;;;;;;5088561;28;20212;-92
2023/09/30 04:10:15;;;;;;;1.25;1.05;;;;;;;;;;5089454;28;20314;-91
2023/09/30 04:12:43;;;;;;;1.30;1.20;;;;;;;;;;5091623;28;20219;-91
2023/09/30 04:15:12;;;;;;;2.10;1.30;;;;;;;;;;5092702;28;20203;-91
2023/09/30 04:17:39;;;;;;;5.20;2.50;;;;;;;;;;5094732;28;21279;-91
2023/09/30 04:20:10;;;;;;;2.72;1.80;;;;;;;;;;5089596;28;20228;-91
2023/09/30 04:22:39;;;;;;;3.20;1.70;;;;;;;;;;5090937;28;20334;-91
2023/09/30 04:25:10;;;;;;;1.85;1.40;;;;;;;;;;5091752;28;20223;-91
2023/09/30 04:27:38;;;;;;;4.90;1.40;;;;;;;;;;5088944;28;20199;-92
2023/09/30 04:30:08;;;;;;;3.50;2.13;;;;;;;;;;5087965;28;20226;-92
2023/09/30 04:32:36;;;;;;;2.67;1.60;;;;;;;;;;5085472;28;20204;-91
2023/09/30 04:35:05;;;;;;;2.33;1.65;;;;;;;;;;5090063;28;20966;-91
2023/09/30 04:37:32;;;;;;;2.80;1.98;;;;;;;;;;5090856;28;20299;-91
2023/09/30 04:40:00;;;;;;;2.90;2.20;;;;;;;;;;5086770;28;20700;-91
2023/09/30 04:42:29;;;;;;;2.92;1.50;;;;;;;;;;5092249;28;20299;-91
2023/09/30 04:44:56;;;;;;;3.50;2.53;;;;;;;;;;5091057;28;20582;-91
2023/09/30 04:47:24;;;;;;;4.20;2.22;;;;;;;;;;5089952;28;20204;-91
2023/09/30 04:49:52;;;;;;;2.17;1.45;;;;;;;;;;5091441;28;20692;-91
2023/09/30 04:52:20;;;;;;;3.25;2.08;;;;;;;;;;5087613;28;20197;-91
2023/09/30 04:54:48;;;;;;;4.22;2.40;;;;;;;;;;5087086;28;20201;-91
2023/09/30 04:57:15;;;;;;;2.17;1.63;;;;;;;;;;5090571;28;20211;-91
2023/09/30 04:59:44;;;;;;;2.78;1.40;;;;;;;;;;5088110;28;20230;-91
2023/09/30 05:02:14;;;;;;;3.92;2.10;;;;;;;;;;5089952;28;20204;-91
2023/09/30 05:04:42;;;;;;;3.63;1.83;;;;;;;;;;5088966;28;20227;-91
2023/09/30 05:07:10;;;;;;;3.83;1.95;;;;;;;;;;5087939;28;20208;-91
2023/09/30 05:09:38;;;;;;;4.10;2.45;;;;;;;;;;5088465;28;20226;-91
2023/09/30 05:12:06;;;;;;;3.80;1.83;;;;;;;;;;5090562;28;20303;-91
2023/09/30 05:14:34;;;;;;;1.80;1.33;;;;;;;;;;5090897;28;20200;-90
2023/09/30 05:17:04;;;;;;;1.88;1.20;;;;;;;;;;5090929;28;20201;-91
2023/09/30 05:19:32;;;;;;;3.45;1.60;;;;;;;;;;5095304;28;20220;-91
2023/09/30 05:22:00;;;;;;;4.38;1.75;;;;;;;;;;5098047;28;20685;-91
2023/09/30 05:24:28;;;;;;;3.90;2.72;;;;;;;;;;5091403;28;20680;-91
2023/09/30 05:26:56;;;;;;;3.80;1.90;;;;;;;;;;5091103;28;20213;-91
2023/09/30 05:29:23;;;;;;;3.53;1.88;;;;;;;;;;5092342;28;20228;-92
2023/09/30 05:31:51;;;;;;;2.60;1.60;;;;;;;;;;5091205;28;20200;-91
2023/09/30 05:34:20;;;;;;;2.20;1.60;;;;;;;;;;5092686;28;20226;-91
2023/09/30 05:36:47;;;;;;;5.30;2.17;;;;;;;;;;5092157;28;20559;-91
2023/09/30 05:39:19;;;;;;;3.13;2.38;;;;;;;;;;5091658;28;20321;-92
2023/09/30 05:41:46;;;;;;;2.28;1.55;;;;;;;;;;5091358;28;20208;-91
2023/09/30 05:44:14;;;;;;;3.17;1.50;;;;;;;;;;5092142;28;21413;-90
2023/09/30 05:46:43;;;;;;;3.65;1.98;;;;;;;;;;5089961;27;20236;-92
2023/09/30 05:49:13;;;;;;;2.97;1.80;;;;;;;;;;5117051;27;20222;-91
2023/09/30 05:51:42;;;;;;;3.42;1.63;;;;;;;;;;5115339;28;20192;-92
2023/09/30 05:54:10;;;;;;;2.05;1.50;;;;;;;;;;5114909;28;20643;-92
2023/09/30 05:56:38;;;;;;;2.53;1.35;;;;;;;;;;5117102;28;20207;-92
2023/09/30 05:59:06;;;;;;;2.50;1.80;;;;;;;;;;5116090;28;20228;-92
2023/09/30 06:01:35;;;;;;;1.02;0.93;;;;;;;;;;5128479;28;20621;-92
2023/09/30 06:04:03;;;;;;;1.67;1.55;;;;;;;;;;5117708;28;20195;-92
2023/09/30 06:06:31;;;;;;;4.07;1.65;;;;;;;;;;5127471;27;20226;-91
2023/09/30 06:09:00;;;;;;;1.38;1.17;;;;;;;;;;5121675;27;20222;-91
2023/09/30 06:11:28;;;;;;;2.55;1.27;;;;;;;;;;5136218;27;20203;-91
2023/09/30 06:13:58;;;;;;;2.05;1.73;;;;;;;;;;5136337;27;20203;-92
2023/09/30 06:16:26;;;;;;;1.60;1.50;;;;;;;;;;5136856;27;20191;-92
2023/09/30 06:18:54;;;;;;;4.40;1.77;;;;;;;;;;5136676;27;20303;-91
2023/09/30 06:21:22;;;;;;;3.80;1.85;;;;;;;;;;5136276;27;20729;-91
2023/09/30 06:23:51;;;;;;;2.85;1.67;;;;;;;;;;5138172;27;20203;-91
2023/09/30 06:26:20;;;;;;;1.30;0.95;;;;;;;;;;5135567;27;20253;-92
2023/09/30 06:28:49;;;;;;;1.80;1.50;;;;;;;;;;5135498;27;20218;-92
2023/09/30 06:31:17;;;;;;;1.40;1.30;;;;;;;;;;5135851;27;20282;-91
2023/09/30 06:33:44;;;;;;;1.05;1.05;;;;;;;;;;5121939;27;20657;-92
2023/09/30 06:36:14;;;;;;;1.27;1.17;;;;;;;;;;5134957;27;20226;-91
2023/09/30 06:38:42;;;;;;;2.08;1.65;;;;;;;;;;5134724;27;20247;-92
2023/09/30 06:41:10;;;;;;;2.13;1.50;;;;;;;;;;5134798;27;20206;-91
2023/09/30 06:43:39;;;;;;;1.20;1.10;;;;;;;;;;5134867;27;20203;-91
2023/09/30 06:46:09;;;;;;;1.77;1.20;;;;;;;;;;5134433;27;20225;-92
2023/09/30 06:48:37;;;;;;;1.80;1.52;;;;;;;;;;5134487;27;20217;-91
2023/09/30 06:51:04;;;;;;;3.13;1.92;;;;;;;;;;5135316;27;20198;-91
2023/09/30 06:53:32;;;;;;;2.63;1.60;;;;;;;;;;5159402;27;20210;-92
2023/09/30 06:56:00;;;;;;;2.30;1.70;;;;;;;;;;5160020;27;20202;-91
2023/09/30 06:58:27;;;;;;;3.10;2.03;;;;;;;;;;5159929;27;20179;-91
2023/09/30 07:00:56;;;;;;;1.25;1.15;;;;;;;;;;5141997;27;20211;-91
2023/09/30 07:03:24;;;;;;;1.73;1.33;;;;;;;;;;5127627;27;20225;-92
2023/09/30 07:05:52;;;;;;;3.67;1.77;;;;;;;;;;5127963;27;20233;-91
2023/09/30 07:08:21;;;;;;;2.10;1.85;;;;;;;;;;5113734;28;20222;-91
2023/09/30 07:10:49;;;;;;;2.00;1.83;;;;;;;;;;5113671;28;20269;-92
2023/09/30 07:13:18;;;;;;;2.88;1.90;;;;;;;;;;5114424;28;20196;-91
2023/09/30 07:15:46;;;;;;;2.85;2.10;;;;;;;;;;5114225;28;20286;-91
2023/09/30 07:18:15;;;;;;;5.97;2.35;;;;;;;;;;5113751;28;20560;-91
2023/09/30 07:20:55;;;;;;;2.95;1.73;;;;;;;;;;5117449;28;20740;-92
2023/09/30 07:23:22;;;;;;;3.55;3.25;;;;;;;;;;5113557;28;20278;-92
2023/09/30 07:25:50;;;;;;;3.08;2.30;;;;;;;;;;5123549;28;20223;-91
2023/09/30 07:28:17;;;;;;;4.20;2.00;;;;;;;;;;5113485;28;20689;-91
2023/09/30 07:30:46;;;;;;;1.40;1.30;;;;;;;;;;5113233;28;20219;-91
2023/09/30 07:33:14;;;;;;;2.33;2.00;;;;;;;;;;5109581;28;20268;-92
2023/09/30 07:35:42;;;;;;;2.75;2.00;;;;;;;;;;5139274;27;20183;-92
2023/09/30 07:38:10;;;;;;;3.95;2.40;;;;;;;;;;5156883;27;20186;-91
2023/09/30 07:40:37;;;;;;;5.03;2.25;;;;;;;;;;5159136;27;20207;-92
2023/09/30 07:43:05;;;;;;;2.60;1.98;;;;;;;;;;5159366;27;20205;-91
2023/09/30 07:45:32;;;;;;;4.32;2.38;;;;;;;;;;5159300;27;20194;-91
2023/09/30 07:48:03;;;;;;;5.82;2.83;;;;;;;;;;5159204;27;20238;-91
2023/09/30 07:50:32;;;;;;;5.38;2.50;;;;;;;;;;5158844;27;20207;-91
2023/09/30 07:53:00;;;;;;;4.25;2.15;;;;;;;;;;5159380;27;20190;-91
2023/09/30 07:55:28;;;;;;;4.55;2.53;;;;;;;;;;5159061;27;20182;-91
2023/09/30 07:57:57;;;;;;;5.30;2.55;;;;;;;;;;5159272;27;20359;-91
2023/09/30 08:00:25;;;;;;;1.98;1.67;;;;;;;;;;5158765;27;20227;-90
2023/09/30 08:02:52;;;;;;;3.42;3.13;;;;;;;;;;5157614;27;20187;-92
2023/09/30 08:05:20;;;;;;;4.15;2.90;;;;;;;;;;5147740;27;20183;-92
2023/09/30 08:07:49;;;;;;;3.08;2.55;;;;;;;;;;5158762;27;20207;-90
2023/09/30 08:10:16;;;;;;;3.17;1.95;;;;;;;;;;5158642;27;20219;-92
2023/09/30 08:12:46;;;;;;;2.03;1.55;;;;;;;;;;5159204;27;20190;-90
2023/09/30 08:15:14;;;;;;;2.10;1.77;;;;;;;;;;5158910;27;20236;-91
2023/09/30 08:17:41;;;;;;;2.47;2.10;;;;;;;;;;5158838;27;20191;-91
2023/09/30 08:20:10;;;;;;;3.90;2.65;;;;;;;;;;5158726;27;20229;-91
2023/09/30 08:22:38;;;;;;;5.50;2.10;;;;;;;;;;5159074;27;20181;-90
2023/09/30 08:25:09;;;;;;;8.15;3.03;;;;;;;;;;5158852;27;20183;-91
2023/09/30 08:27:37;;;;;;;2.28;1.85;;;;;;;;;;5145203;27;20574;-92
2023/09/30 08:30:06;;;;;;;4.15;2.03;;;;;;;;;;5133996;28;20601;-93
2023/09/30 08:32:35;;;;;;;4.85;2.40;;;;;;;;;;5134064;28;20203;-93
2023/09/30 08:35:04;;;;;;;5.03;2.90;;;;;;;;;;5125247;28;20723;-92
2023/09/30 08:37:32;;;;;;;5.90;2.58;;;;;;;;;;5145269;27;20219;-93
2023/09/30 08:40:00;;;;;;;3.70;2.50;;;;;;;;;;5135015;28;20219;-92
2023/09/30 08:42:32;;;;;;;4.55;2.28;;;;;;;;;;5141160;28;20225;-93
2023/09/30 08:45:00;;;;;;;3.33;1.77;;;;;;;;;;5143227;27;20207;-92
2023/09/30 08:47:28;;;;;;;2.88;2.58;;;;;;;;;;5148846;27;20739;-92
2023/09/30 08:49:59;;;;;;;3.60;1.90;;;;;;;;;;5143474;27;20209;-91
2023/09/30 08:52:28;;;;;;;3.20;1.67;;;;;;;;;;5141970;27;20286;-92
2023/09/30 08:54:56;;;;;;;1.95;1.60;;;;;;;;;;5137169;27;20584;-91
2023/09/30 08:57:24;;;;;;;3.35;2.53;;;;;;;;;;5137224;27;20636;-92
2023/09/30 08:59:55;;;;;;;4.85;1.73;;;;;;;;;;5136587;27;20222;-92
2023/09/30 09:02:22;;;;;;;2.28;1.27;;;;;;;;;;5136989;27;20293;-92
2023/09/30 09:04:50;;;;;;;3.20;2.08;;;;;;;;;;5122332;27;20286;-93
2023/09/30 09:07:18;;;;;;;4.13;2.20;;;;;;;;;;5124860;28;20219;-92
2023/09/30 09:10:05;;;;;;;5.28;3.30;;;;;;;;;;5116318;28;20219;-92
2023/09/30 09:12:34;;;;;;;5.95;1.63;;;;;;;;;;5116395;28;20204;-91
2023/09/30 09:15:04;;;;;;;2.65;1.98;;;;;;;;;;5116524;28;20377;-91
2023/09/30 09:17:43;;;;;;;3.13;1.92;;;;;;;;;;5115952;28;20287;-92
2023/09/30 09:20:13;;;;;;;2.47;1.83;;;;;;;;;;5115930;28;20662;-91
2023/09/30 09:22:42;;;;;;;2.85;1.98;;;;;;;;;;5116317;28;20204;-91
2023/09/30 09:25:11;;;;;;;3.85;1.80;;;;;;;;;;5116075;28;20307;-92
2023/09/30 09:27:39;;;;;;;5.47;1.95;;;;;;;;;;5115731;28;20708;-92
2023/09/30 09:30:23;;;;;;;2.40;1.80;;;;;;;;;;5115899;28;20224;-92
2023/09/30 09:33:01;;;;;;;5.10;2.03;;;;;;;;;;5116473;27;20223;-93
2023/09/30 09:35:30;;;;;;;2.60;1.27;;;;;;;;;;5128698;27;20213;-92
2023/09/30 09:38:03;;;;;;;2.38;1.40;;;;;;;;;;5135641;27;20301;-91
2023/09/30 09:40:32;;;;;;;2.10;1.38;;;;;;;;;;5136608;27;20752;-92
2023/09/30 09:43:02;;;;;;;3.30;1.48;;;;;;;;;;5136759;27;20205;-91
2023/09/30 09:45:32;;;;;;;1.60;1.30;;;;;;;;;;5136685;27;20210;-91
2023/09/30 09:48:00;;;;;;;2.45;1.33;;;;;;;;;;5136236;27;20223;-92
2023/09/30 09:50:29;;;;;;;2.40;1.25;;;;;;;;;;5136014;27;20297;-91
2023/09/30 09:52:58;;;;;;;3.80;2.05;;;;;;;;;;5136435;27;20217;-92
2023/09/30 09:55:27;;;;;;;2.17;1.38;;;;;;;;;;5135733;27;20203;-92
2023/09/30 09:57:56;;;;;;;7.05;1.73;;;;;;;;;;5136610;27;20255;-91
2023/09/30 10:00:26;;;;;;;4.05;2.35;;;;;;;;;;5136255;27;20307;-92
2023/09/30 10:02:55;;;;;;;3.42;1.77;;;;;;;;;;5135688;27;20195;-92
2023/09/30 10:05:23;;;;;;;3.65;1.83;;;;;;;;;;5130784;27;20303;-92
2023/09/30 10:07:55;;;;;;;8.85;2.17;;;;;;;;;;5135729;27;20245;-92
2023/09/30 10:10:23;;;;;;;1.63;1.52;;;;;;;;;;5146177;27;20298;-92
2023/09/30 10:12:51;;;;;;;5.38;1.50;;;;;;;;;;5136244;27;20255;-92
2023/09/30 10:15:42;;;;;;;3.65;2.00;;;;;;;;;;5135931;27;20202;-92
2023/09/30 10:18:12;;;;;;;3.05;2.08;;;;;;;;;;5136672;27;20195;-91
2023/09/30 10:20:43;;;;;;;3.28;1.70;;;;;;;;;;5136403;27;20219;-92
2023/09/30 10:23:25;;;;;;;2.45;1.42;;;;;;;;;;5136643;27;20195;-92
2023/09/30 10:25:57;;;;;;;1.42;1.20;;;;;;;;;;5137182;27;20215;-93
2023/09/30 10:28:39;;;;;;;2.05;1.27;;;;;;;;;;5135677;27;20214;-92
2023/09/30 10:31:17;;;;;;;1.95;1.60;;;;;;;;;;5135925;27;20211;-93
2023/09/30 10:34:22;;;;;;;4.78;1.77;;;;;;;;;;5120977;27;20222;-92
2023/09/30 10:36:52;;;;;;;4.80;2.05;;;;;;;;;;5126664;27;20289;-93
2023/09/30 10:39:56;;;;;;;2.67;1.80;;;;;;;;;;5135235;27;20238;-91
2023/09/30 10:42:47;;;;;;;3.67;1.83;;;;;;;;;;5135229;27;20191;-92
2023/09/30 10:45:46;;;;;;;3.17;1.60;;;;;;;;;;5135293;27;20214;-93
2023/09/30 10:48:48;;;;;;;2.38;1.52;;;;;;;;;;5129813;27;20226;-92
2023/09/30 10:51:20;;;;;;;4.45;2.45;;;;;;;;;;5071996;28;20204;-92
2023/09/30 10:53:52;;;;;;;4.93;2.05;;;;;;;;;;5071809;28;20284;-92
2023/09/30 10:56:21;;;;;;;2.38;1.42;;;;;;;;;;5103511;27;20195;-92
2023/09/30 10:58:50;;;;;;;2.88;2.00;;;;;;;;;;5134694;27;20219;-92
2023/09/30 11:01:20;;;;;;;2.80;2.05;;;;;;;;;;5135202;27;20278;-92
2023/09/30 11:03:50;;;;;;;1.85;1.40;;;;;;;;;;5119054;27;20207;-91
2023/09/30 11:06:22;;;;;;;2.40;1.85;;;;;;;;;;5131498;27;20716;-93
2023/09/30 11:08:54;;;;;;;4.30;1.40;;;;;;;;;;5134241;27;20780;-92
2023/09/30 11:11:32;;;;;;;2.85;1.55;;;;;;;;;;5135254;27;20628;-92
2023/09/30 11:14:00;;;;;;;2.00;1.73;;;;;;;;;;5137205;27;20285;-92
2023/09/30 11:16:27;;;;;;;2.45;1.25;;;;;;;;;;5138495;27;20207;-92
2023/09/30 11:18:55;;;;;;;1.67;1.00;;;;;;;;;;5159600;27;20202;-91
2023/09/30 11:21:24;;;;;;;2.50;1.25;;;;;;;;;;5158872;27;20183;-93
2023/09/30 11:23:52;;;;;;;1.58;1.40;;;;;;;;;;5159217;27;20200;-92
2023/09/30 11:26:32;;;;;;;2.55;1.20;;;;;;;;;;5139909;27;20627;-93
2023/09/30 11:29:07;;;;;;;1.13;0.95;;;;;;;;;;5139738;27;20222;-93
2023/09/30 11:31:35;;;;;;;2.00;1.20;;;;;;;;;;5135939;27;20608;-93
2023/09/30 11:34:04;;;;;;;1.48;1.00;;;;;;;;;;5120236;27;20656;-93
2023/09/30 11:36:33;;;;;;;1.90;1.75;;;;;;;;;;5134818;27;20195;-92
2023/09/30 11:39:02;;;;;;;1.63;1.10;;;;;;;;;;5134636;27;20309;-92
2023/09/30 11:41:36;;;;;;;3.17;1.40;;;;;;;;;;5134808;27;20293;-92
2023/09/30 11:44:08;;;;;;;1.27;1.10;;;;;;;;;;5135104;27;20651;-92
2023/09/30 11:46:50;;;;;;;2.42;1.23;;;;;;;;;;5134654;27;20691;-92
2023/09/30 11:49:28;;;;;;;3.45;1.77;;;;;;;;;;5134507;27;20301;-93
2023/09/30 11:51:58;;;;;;;1.63;1.30;;;;;;;;;;5134524;27;20301;-93
2023/09/30 11:54:34;;;;;;;4.45;2.15;;;;;;;;;;5134737;27;20282;-93
2023/09/30 11:57:03;;;;;;;2.05;1.10;;;;;;;;;;5134749;27;20263;-92
2023/09/30 11:59:30;;;;;;;1.85;1.33;;;;;;;;;;5134321;27;20273;-92
2023/09/30 12:01:58;;;;;;;1.85;1.33;;;;;;;;;;5134698;28;20286;-92
2023/09/30 12:04:26;;;;;;;2.83;1.40;;;;;;;;;;5119513;28;20274;-93
2023/09/30 12:06:53;;;;;;;1.13;1.02;;;;;;;;;;5134129;28;20286;-92
2023/09/30 12:09:25;;;;;;;1.50;1.08;;;;;;;;;;5133790;28;20221;-92
2023/09/30 12:11:53;;;;;;;1.88;1.52;;;;;;;;;;5134442;28;20199;-93
2023/09/30 12:14:21;;;;;;;1.92;1.17;;;;;;;;;;5134303;28;20549;-92
2023/09/30 12:16:50;;;;;;;1.65;1.02;;;;;;;;;;5134093;28;20282;-92
2023/09/30 12:19:18;;;;;;;2.70;1.10;;;;;;;;;;5135597;27;20222;-92
2023/09/30 12:21:47;;;;;;;5.57;1.90;;;;;;;;;;5142815;27;20211;-92
2023/09/30 12:24:17;;;;;;;1.50;1.40;;;;;;;;;;5138983;27;20234;-92
2023/09/30 12:26:48;;;;;;;4.38;1.90;;;;;;;;;;5138341;27;20198;-92
2023/09/30 12:29:17;;;;;;;3.83;1.95;;;;;;;;;;5138147;27;20382;-92
2023/09/30 12:31:45;;;;;;;2.90;1.65;;;;;;;;;;5138163;27;20255;-93
2023/09/30 12:34:13;;;;;;;2.33;1.60;;;;;;;;;;5123086;27;20286;-92
2023/09/30 12:36:41;;;;;;;2.05;1.50;;;;;;;;;;5112362;27;20196;-92
2023/09/30 12:39:11;;;;;;;6.65;2.55;;;;;;;;;;5096799;28;20228;-92
2023/09/30 12:41:39;;;;;;;3.13;2.15;;;;;;;;;;5096821;28;20204;-92
2023/09/30 12:44:08;;;;;;;1.50;1.20;;;;;;;;;;5097131;28;20232;-91
2023/09/30 12:46:36;;;;;;;2.85;1.27;;;;;;;;;;5097132;28;20235;-92
2023/09/30 12:49:04;;;;;;;3.25;1.50;;;;;;;;;;5096498;28;20247;-93
2023/09/30 12:51:33;;;;;;;2.17;1.10;;;;;;;;;;5096576;28;20224;-92
2023/09/30 12:54:00;;;;;;;2.10;1.38;;;;;;;;;;5096856;28;20205;-93
2023/09/30 12:56:29;;;;;;;1.80;1.35;;;;;;;;;;5096563;28;20282;-93
2023/09/30 12:58:57;;;;;;;3.97;1.67;;;;;;;;;;5096267;28;20212;-92
2023/09/30 13:01:28;;;;;;;1.60;1.25;;;;;;;;;;5097094;28;20192;-94
2023/09/30 13:03:55;;;;;;;2.40;2.20;;;;;;;;;;5110956;27;20294;-92
2023/09/30 13:06:23;;;;;;;2.20;1.42;;;;;;;;;;5137395;27;20209;-92
2023/09/30 13:08:51;;;;;;;2.58;1.70;;;;;;;;;;5137358;27;20247;-92
2023/09/30 13:11:18;;;;;;;1.75;1.40;;;;;;;;;;5144868;27;20791;-92
2023/09/30 13:13:46;;;;;;;1.83;1.40;;;;;;;;;;5137936;27;20834;-92
2023/09/30 13:16:13;;;;;;;2.20;1.88;;;;;;;;;;5137042;27;20746;-92
2023/09/30 13:18:42;;;;;;;1.77;1.27;;;;;;;;;;5137273;27;20267;-93
2023/09/30 13:21:12;;;;;;;1.33;1.23;;;;;;;;;;5137928;27;20640;-92
2023/09/30 13:23:39;;;;;;;3.80;2.20;;;;;;;;;;5137658;27;20568;-92
2023/09/30 13:26:07;;;;;;;2.95;1.48;;;;;;;;;;5142742;27;20724;-92
2023/09/30 13:28:35;;;;;;;2.60;1.48;;;;;;;;;;5137030;27;20560;-93
2023/09/30 13:31:02;;;;;;;3.13;1.50;;;;;;;;;;5136073;27;20330;-93
2023/09/30 13:33:31;;;;;;;1.70;1.60;;;;;;;;;;5124926;27;20291;-93
2023/09/30 13:36:02;;;;;;;0.88;0.88;;;;;;;;;;5132426;27;20234;-92
2023/09/30 13:38:29;;;;;;;1.40;1.20;;;;;;;;;;5116165;28;20653;-93
2023/09/30 13:40:57;;;;;;;2.45;1.30;;;;;;;;;;5127395;28;20230;-92
2023/09/30 13:43:26;;;;;;;2.10;1.27;;;;;;;;;;5118775;28;20200;-93
2023/09/30 13:45:53;;;;;;;1.88;1.60;;;;;;;;;;5124523;28;20248;-93
2023/09/30 13:48:21;;;;;;;5.18;1.90;;;;;;;;;;5125735;28;20218;-93
2023/09/30 13:50:48;;;;;;;1.65;1.00;;;;;;;;;;5116531;28;20314;-92
2023/09/30 13:53:17;;;;;;;1.40;1.30;;;;;;;;;;5115884;28;20250;-92
2023/09/30 13:55:45;;;;;;;2.70;1.20;;;;;;;;;;5116157;28;20306;-93
2023/09/30 13:58:13;;;;;;;3.13;1.75;;;;;;;;;;5116040;28;20207;-92
2023/09/30 14:00:41;;;;;;;1.55;1.38;;;;;;;;;;5116266;28;20311;-93
2023/09/30 14:03:09;;;;;;;1.50;1.40;;;;;;;;;;5117216;27;20239;-92
2023/09/30 14:05:38;;;;;;;2.35;2.03;;;;;;;;;;5127933;27;20664;-93
2023/09/30 14:08:07;;;;;;;2.47;1.88;;;;;;;;;;5136663;27;20203;-93
2023/09/30 14:10:36;;;;;;;6.55;2.88;;;;;;;;;;5136615;27;20223;-93
2023/09/30 14:13:04;;;;;;;1.90;1.70;;;;;;;;;;5136378;27;20586;-92
2023/09/30 14:15:32;;;;;;;2.65;1.70;;;;;;;;;;5136510;27;20302;-92
2023/09/30 14:17:59;;;;;;;2.50;1.67;;;;;;;;;;5136878;27;20223;-93
2023/09/30 14:20:27;;;;;;;3.20;1.80;;;;;;;;;;5136044;27;20306;-93
2023/09/30 14:22:55;;;;;;;2.55;1.92;;;;;;;;;;5136294;27;20281;-92
2023/09/30 14:25:23;;;;;;;2.17;1.55;;;;;;;;;;5135965;27;20203;-93
2023/09/30 14:27:52;;;;;;;2.40;1.60;;;;;;;;;;5136394;27;20198;-93
2023/09/30 14:30:20;;;;;;;1.45;1.35;;;;;;;;;;5135576;27;20612;-92
2023/09/30 14:32:48;;;;;;;3.05;2.13;;;;;;;;;;5135311;27;20202;-92
2023/09/30 14:35:16;;;;;;;1.13;1.02;;;;;;;;;;5114670;28;20278;-92
2023/09/30 14:37:43;;;;;;;1.92;1.60;;;;;;;;;;5097616;28;20226;-92
2023/09/30 14:40:12;;;;;;;2.25;1.20;;;;;;;;;;5094089;28;20642;-93
2023/09/30 14:42:41;;;;;;;2.03;1.25;;;;;;;;;;5095125;28;20204;-94
2023/09/30 14:45:11;;;;;;;1.92;1.30;;;;;;;;;;5094329;28;20239;-92
2023/09/30 14:47:39;;;;;;;2.50;2.05;;;;;;;;;;5094397;28;20200;-92
2023/09/30 14:50:09;;;;;;;1.48;1.38;;;;;;;;;;5094207;28;20307;-90
2023/09/30 14:52:37;;;;;;;2.05;1.70;;;;;;;;;;5093943;28;20199;-91
2023/09/30 14:55:05;;;;;;;1.70;1.25;;;;;;;;;;5093716;28;20222;-91
2023/09/30 14:57:33;;;;;;;2.25;1.80;;;;;;;;;;5094227;28;20617;-90